Time;durP1;ratioP1;P1;durP2;ratioP2;P2;SDS_P1;SDS_P2;PMS_P1;PMS_P2;Temp;Humidity;BMP_temperature;BMP_pressure;BME280_temperature;BME280_humidity;BME280_pressure;Samples;Min_cycle;Max_cycle;Signal;HPM_P1;HPM_P2
2021/01/24 00:01:31;;;;;;;12.07;3.65;;;3.60;99.90;;;;;;5044757;28;20033;-65
2021/01/24 00:03:56;;;;;;;9.27;3.28;;;3.60;99.90;;;;;;5043354;28;20028;-65
2021/01/24 00:06:22;;;;;;;9.88;3.63;;;3.60;99.90;;;;;;5044818;28;20037;-65
2021/01/24 00:08:48;;;;;;;10.05;3.20;;;3.50;99.90;;;;;;5042381;28;20044;-65
2021/01/24 00:11:13;;;;;;;8.18;3.20;;;3.60;99.90;;;;;;5042858;28;20042;-65
2021/01/24 00:13:39;;;;;;;9.55;3.97;;;3.60;99.90;;;;;;5047135;28;20106;-65
2021/01/24 00:16:05;;;;;;;9.40;3.40;;;3.50;99.90;;;;;;5040878;28;20037;-65
2021/01/24 00:18:30;;;;;;;10.57;4.03;;;3.60;99.90;;;;;;5045331;28;20052;-65
2021/01/24 00:20:56;;;;;;;11.05;4.45;;;3.50;99.90;;;;;;5043190;28;20117;-64
2021/01/24 00:23:21;;;;;;;10.95;4.35;;;3.50;99.90;;;;;;5044643;28;20473;-65
2021/01/24 00:25:47;;;;;;;10.75;4.00;;;3.40;99.90;;;;;;5044463;28;20045;-65
2021/01/24 00:28:19;;;;;;;10.80;5.10;;;3.50;99.90;;;;;;5041453;28;20042;-66
2021/01/24 00:30:44;;;;;;;12.32;4.18;;;3.40;99.90;;;;;;5046320;28;20036;-66
2021/01/24 00:33:10;;;;;;;13.20;4.13;;;3.40;99.90;;;;;;5039932;28;20033;-66
2021/01/24 00:35:35;;;;;;;13.48;5.20;;;3.40;99.90;;;;;;5045803;28;20378;-66
2021/01/24 00:38:02;;;;;;;11.32;4.43;;;3.40;99.90;;;;;;5043768;28;20467;-65
2021/01/24 00:40:27;;;;;;;18.92;5.05;;;3.40;99.90;;;;;;5040814;28;20037;-66
2021/01/24 00:42:53;;;;;;;10.25;4.20;;;3.30;99.90;;;;;;5042937;28;20044;-66
2021/01/24 00:45:18;;;;;;;12.48;5.20;;;3.30;99.90;;;;;;5043376;28;20060;-65
2021/01/24 00:47:44;;;;;;;11.48;5.13;;;3.30;99.90;;;;;;5044666;28;20037;-66
2021/01/24 00:50:10;;;;;;;10.90;4.30;;;3.30;99.90;;;;;;5039836;28;20041;-66
2021/01/24 00:52:35;;;;;;;9.88;4.53;;;3.30;99.90;;;;;;5044389;28;20116;-66
2021/01/24 00:55:01;;;;;;;13.30;4.25;;;3.30;99.90;;;;;;5043459;28;20175;-65
2021/01/24 00:57:26;;;;;;;9.93;4.13;;;3.30;99.90;;;;;;5046133;28;20405;-66
2021/01/24 00:59:52;;;;;;;11.10;4.53;;;3.30;99.90;;;;;;5046217;28;20033;-65
2021/01/24 01:02:18;;;;;;;11.30;3.97;;;3.30;99.90;;;;;;5036609;28;20038;-66
2021/01/24 01:04:44;;;;;;;10.07;4.18;;;3.30;99.90;;;;;;5039443;28;20033;-65
2021/01/24 01:07:09;;;;;;;8.43;3.97;;;3.30;99.90;;;;;;5037839;28;20066;-66
2021/01/24 01:09:36;;;;;;;10.27;4.95;;;3.20;99.90;;;;;;5037648;28;20041;-65
2021/01/24 01:12:03;;;;;;;10.57;3.97;;;3.20;99.90;;;;;;5038707;28;20698;-65
2021/01/24 01:14:28;;;;;;;8.30;3.95;;;3.20;99.90;;;;;;5035641;28;20034;-66
2021/01/24 01:16:54;;;;;;;8.85;3.95;;;3.20;99.90;;;;;;5040055;28;20454;-66
2021/01/24 01:19:20;;;;;;;7.72;3.67;;;3.20;99.90;;;;;;5040305;28;20505;-66
2021/01/24 01:21:45;;;;;;;8.23;3.92;;;3.10;99.90;;;;;;5039504;28;20033;-66
2021/01/24 01:24:11;;;;;;;9.30;3.72;;;3.10;99.90;;;;;;5037588;28;20025;-65
2021/01/24 01:26:36;;;;;;;14.95;5.85;;;3.10;99.90;;;;;;5040699;28;20026;-66
2021/01/24 01:29:02;;;;;;;10.85;4.20;;;3.20;99.90;;;;;;5038521;28;20021;-66
2021/01/24 01:31:28;;;;;;;8.30;3.53;;;3.20;99.90;;;;;;5036806;28;20465;-66
2021/01/24 01:33:53;;;;;;;9.45;3.88;;;3.20;99.90;;;;;;5038501;28;20189;-66
2021/01/24 01:36:19;;;;;;;11.93;4.65;;;3.20;99.90;;;;;;5036784;28;20037;-65
2021/01/24 01:38:45;;;;;;;10.50;3.75;;;3.20;99.90;;;;;;5038891;28;20036;-66
2021/01/24 01:41:10;;;;;;;15.88;4.38;;;3.10;99.90;;;;;;5037547;28;20112;-65
2021/01/24 01:43:36;;;;;;;10.52;3.83;;;3.10;99.90;;;;;;5037942;28;20033;-66
2021/01/24 01:46:03;;;;;;;9.20;4.47;;;3.10;99.90;;;;;;5040318;28;20033;-66
2021/01/24 01:48:31;;;;;;;9.00;4.07;;;3.10;99.90;;;;;;5040709;28;20095;-66
2021/01/24 01:50:57;;;;;;;8.75;3.88;;;3.00;99.90;;;;;;5042784;28;20029;-66
2021/01/24 01:53:23;;;;;;;9.93;3.42;;;3.00;99.90;;;;;;5040089;28;20041;-65
2021/01/24 01:55:48;;;;;;;11.27;3.53;;;3.00;99.90;;;;;;5043363;28;20025;-66
2021/01/24 01:58:14;;;;;;;10.05;3.47;;;3.10;99.90;;;;;;5040255;28;20406;-66
2021/01/24 02:00:39;;;;;;;8.15;2.65;;;3.10;99.90;;;;;;5042260;28;20036;-66
2021/01/24 02:03:23;;;;;;;6.82;3.25;;;3.10;99.90;;;;;;5041505;28;20414;-66
2021/01/24 02:06:17;;;;;;;9.00;2.92;;;3.20;99.90;;;;;;5043508;28;20191;-65
2021/01/24 02:08:53;;;;;;;12.73;3.88;;;3.20;99.90;;;;;;5012314;28;20133;-66
2021/01/24 02:11:50;;;;;;;5.07;2.58;;;3.30;99.90;;;;;;5043961;28;20045;-66
2021/01/24 02:14:26;;;;;;;11.48;3.75;;;3.30;99.90;;;;;;5043312;28;20040;-65
2021/01/24 02:16:54;;;;;;;8.43;2.75;;;3.30;99.90;;;;;;5047420;28;20048;-67
2021/01/24 02:19:41;;;;;;;6.38;2.80;;;3.30;99.90;;;;;;5039295;28;20079;-66
2021/01/24 02:22:08;;;;;;;7.65;2.58;;;3.30;99.90;;;;;;5043559;28;20039;-65
2021/01/24 02:24:41;;;;;;;7.85;2.83;;;3.30;99.90;;;;;;5041108;28;20037;-66
2021/01/24 02:27:14;;;;;;;5.82;2.30;;;3.40;99.90;;;;;;5040193;28;20041;-66
2021/01/24 02:30:22;;;;;;;5.38;2.20;;;3.40;99.90;;;;;;5042308;28;20037;-65
2021/01/24 02:32:53;;;;;;;6.15;2.55;;;3.40;99.90;;;;;;5041032;28;20029;-65
2021/01/24 02:35:20;;;;;;;8.85;2.92;;;3.40;99.90;;;;;;5043544;28;20516;-66
2021/01/24 02:37:47;;;;;;;9.35;2.70;;;3.40;99.90;;;;;;5042516;28;20040;-65
2021/01/24 02:40:13;;;;;;;8.13;2.92;;;3.40;99.90;;;;;;5042732;28;20444;-66
2021/01/24 02:42:40;;;;;;;5.93;2.90;;;3.40;99.90;;;;;;5039867;28;20060;-66
2021/01/24 02:45:06;;;;;;;6.97;2.65;;;3.40;99.90;;;;;;5041483;28;20032;-66
2021/01/24 02:47:32;;;;;;;5.63;2.78;;;3.30;99.90;;;;;;5040802;28;20033;-66
2021/01/24 02:49:59;;;;;;;4.45;2.28;;;3.30;99.90;;;;;;5040490;28;20037;-66
2021/01/24 02:52:25;;;;;;;6.53;2.60;;;3.30;99.90;;;;;;5041922;28;20484;-66
2021/01/24 02:54:52;;;;;;;5.60;2.50;;;3.30;99.90;;;;;;5038681;28;20033;-66
2021/01/24 02:57:18;;;;;;;6.65;2.10;;;3.30;99.90;;;;;;5041564;28;20048;-66
2021/01/24 02:59:44;;;;;;;6.38;2.70;;;3.30;99.90;;;;;;5044215;28;20045;-67
2021/01/24 03:02:10;;;;;;;5.28;2.17;;;3.30;99.90;;;;;;5039531;28;20490;-67
2021/01/24 03:04:35;;;;;;;7.55;2.28;;;3.30;99.90;;;;;;5040751;28;20034;-66
2021/01/24 03:07:01;;;;;;;14.00;2.63;;;3.40;99.90;;;;;;5040649;28;20126;-66
2021/01/24 03:09:27;;;;;;;7.30;2.28;;;3.40;99.90;;;;;;5040130;28;20037;-66
2021/01/24 03:11:54;;;;;;;6.30;2.00;;;3.30;99.90;;;;;;5040977;28;20052;-66
2021/01/24 03:14:25;;;;;;;2.85;1.60;;;3.40;99.90;;;;;;5039054;28;20053;-66
2021/01/24 03:16:55;;;;;;;11.85;3.20;;;3.40;99.90;;;;;;5041245;28;20029;-66
2021/01/24 03:19:23;;;;;;;10.88;1.60;;;3.40;99.90;;;;;;5039028;28;20037;-66
2021/01/24 03:21:50;;;;;;;5.47;2.15;;;3.40;99.90;;;;;;5039931;28;20563;-66
2021/01/24 03:24:17;;;;;;;6.72;2.25;;;3.40;99.90;;;;;;5037069;28;20325;-66
2021/01/24 03:26:44;;;;;;;5.13;2.17;;;3.40;99.90;;;;;;5041705;28;20041;-66
2021/01/24 03:29:11;;;;;;;8.07;1.98;;;3.40;99.90;;;;;;5038649;28;20033;-66
2021/01/24 03:31:40;;;;;;;3.22;1.40;;;3.40;99.90;;;;;;5039606;28;20137;-66
2021/01/24 03:34:14;;;;;;;3.75;1.83;;;3.40;99.90;;;;;;5038791;28;20508;-65
2021/01/24 03:36:40;;;;;;;5.47;2.17;;;3.50;99.90;;;;;;5041334;28;20502;-65
2021/01/24 03:39:05;;;;;;;11.35;2.00;;;3.40;99.90;;;;;;5038669;28;20037;-66
2021/01/24 03:41:31;;;;;;;7.40;1.33;;;3.40;99.90;;;;;;5040286;28;20397;-66
2021/01/24 03:43:57;;;;;;;6.40;1.75;;;3.40;99.90;;;;;;5035356;28;20174;-66
2021/01/24 03:46:22;;;;;;;4.18;1.73;;;3.40;99.90;;;;;;5037479;28;20102;-66
2021/01/24 03:48:48;;;;;;;3.30;1.45;;;3.40;99.90;;;;;;5036381;28;20029;-66
2021/01/24 03:51:13;;;;;;;3.22;1.55;;;3.40;99.90;;;;;;5038355;28;20032;-66
2021/01/24 03:53:39;;;;;;;6.63;2.53;;;3.40;99.90;;;;;;5036079;28;20409;-69
2021/01/24 03:56:04;;;;;;;4.05;1.27;;;3.40;99.90;;;;;;5039183;28;20043;-66
2021/01/24 03:58:30;;;;;;;4.88;1.90;;;3.40;99.90;;;;;;5039342;28;20037;-66
2021/01/24 04:00:55;;;;;;;3.15;1.13;;;3.40;99.90;;;;;;5038735;28;20021;-66
2021/01/24 04:03:21;;;;;;;6.57;1.88;;;3.40;99.90;;;;;;5040111;28;20477;-66
2021/01/24 04:05:47;;;;;;;5.70;1.20;;;3.40;99.90;;;;;;5037396;28;20034;-65
2021/01/24 04:08:14;;;;;;;2.20;1.02;;;3.40;99.90;;;;;;5040397;28;20025;-66
2021/01/24 04:10:39;;;;;;;2.22;1.15;;;3.40;99.90;;;;;;5041850;28;20441;-66
2021/01/24 04:13:05;;;;;;;1.83;0.55;;;3.40;99.90;;;;;;5039881;28;20025;-66
2021/01/24 04:15:30;;;;;;;1.60;0.90;;;3.30;99.90;;;;;;5038654;28;20662;-66
2021/01/24 04:17:56;;;;;;;3.17;1.00;;;3.30;99.90;;;;;;5039008;28;20451;-66
2021/01/24 04:20:21;;;;;;;4.75;1.25;;;3.30;99.90;;;;;;5039392;28;20091;-66
2021/01/24 04:22:49;;;;;;;2.35;0.77;;;3.30;99.90;;;;;;5037700;28;20048;-66
2021/01/24 04:25:16;;;;;;;2.33;0.77;;;3.30;99.90;;;;;;5040443;28;20037;-66
2021/01/24 04:27:42;;;;;;;1.77;0.68;;;3.30;99.90;;;;;;5041176;28;20406;-66
2021/01/24 04:30:08;;;;;;;5.63;1.25;;;3.40;99.90;;;;;;5036852;28;20033;-65
2021/01/24 04:32:34;;;;;;;2.38;0.50;;;3.40;99.90;;;;;;5040299;28;20486;-65
2021/01/24 04:34:59;;;;;;;2.00;0.40;;;3.40;99.90;;;;;;5037982;28;20032;-66
2021/01/24 04:37:25;;;;;;;3.22;0.20;;;3.40;99.90;;;;;;5037692;28;21156;-66
2021/01/24 04:39:50;;;;;;;2.42;0.38;;;3.40;99.90;;;;;;5039317;28;20063;-66
2021/01/24 04:42:16;;;;;;;1.63;0.68;;;3.40;99.90;;;;;;5037123;28;20044;-66
2021/01/24 04:44:43;;;;;;;1.00;0.40;;;3.40;99.90;;;;;;5037322;28;20037;-66
2021/01/24 04:47:09;;;;;;;1.83;0.40;;;3.30;99.90;;;;;;5036466;28;20529;-65
2021/01/24 04:49:35;;;;;;;1.90;0.10;;;3.30;99.90;;;;;;5040397;28;20044;-66
2021/01/24 04:52:02;;;;;;;0.50;0.20;;;3.30;99.90;;;;;;5037246;28;20029;-66
2021/01/24 04:54:28;;;;;;;0.47;0.20;;;3.30;99.90;;;;;;5039055;28;20038;-67
2021/01/24 04:56:54;;;;;;;2.78;0.20;;;3.30;99.90;;;;;;5038286;28;20041;-66
2021/01/24 04:59:21;;;;;;;5.50;1.08;;;3.20;99.90;;;;;;5037737;28;20380;-67
2021/01/24 05:01:48;;;;;;;1.50;0.38;;;3.20;99.90;;;;;;5039622;28;20040;-65
2021/01/24 05:04:13;;;;;;;2.78;0.30;;;3.20;99.90;;;;;;5036529;28;20032;-66
2021/01/24 05:06:39;;;;;;;0.70;0.25;;;3.20;99.90;;;;;;5040175;28;20033;-67
2021/01/24 05:09:04;;;;;;;4.13;0.20;;;3.20;99.90;;;;;;5036530;28;20120;-66
2021/01/24 05:11:31;;;;;;;0.88;0.17;;;3.10;99.90;;;;;;5039307;28;20040;-66
2021/01/24 05:14:13;;;;;;;1.88;0.30;;;3.10;99.90;;;;;;5037689;28;20501;-65
2021/01/24 05:16:40;;;;;;;2.65;0.40;;;3.00;99.90;;;;;;5040614;28;20029;-66
2021/01/24 05:19:07;;;;;;;0.55;0.28;;;2.90;99.90;;;;;;5040593;28;20073;-66
2021/01/24 05:21:34;;;;;;;1.15;0.40;;;2.90;99.90;;;;;;5043562;28;20032;-66
2021/01/24 05:24:00;;;;;;;3.75;0.63;;;2.80;99.90;;;;;;5041043;28;20486;-65
2021/01/24 05:26:25;;;;;;;2.60;0.20;;;2.80;99.90;;;;;;5042408;28;20096;-66
2021/01/24 05:28:51;;;;;;;0.75;0.40;;;2.70;99.90;;;;;;5042520;28;20044;-66
2021/01/24 05:31:21;;;;;;;3.70;0.30;;;2.70;99.90;;;;;;5041127;28;20041;-66
2021/01/24 05:33:47;;;;;;;4.30;0.60;;;2.60;99.90;;;;;;5043107;28;20037;-65
2021/01/24 05:36:13;;;;;;;0.25;0.10;;;2.60;99.90;;;;;;5041745;28;20076;-66
2021/01/24 05:38:39;;;;;;;2.72;0.73;;;2.60;99.90;;;;;;5044977;28;20563;-66
2021/01/24 05:41:07;;;;;;;3.00;0.25;;;2.50;99.90;;;;;;5043985;28;20033;-66
2021/01/24 05:43:40;;;;;;;3.00;0.35;;;2.50;99.90;;;;;;5040516;28;20030;-66
2021/01/24 05:46:07;;;;;;;3.47;0.68;;;2.50;99.90;;;;;;5043689;28;20061;-65
2021/01/24 05:48:46;;;;;;;4.55;0.90;;;2.50;99.90;;;;;;5040518;28;20464;-66
2021/01/24 05:51:13;;;;;;;2.97;0.20;;;2.40;99.90;;;;;;5044047;28;20070;-65
2021/01/24 05:53:49;;;;;;;0.98;0.20;;;2.40;99.90;;;;;;5040321;28;20033;-66
2021/01/24 05:56:19;;;;;;;2.17;0.20;;;2.40;99.90;;;;;;5041962;28;20033;-66
2021/01/24 05:58:45;;;;;;;0.90;0.30;;;2.30;99.90;;;;;;5039539;28;20798;-67
2021/01/24 06:01:11;;;;;;;1.42;0.20;;;2.30;99.90;;;;;;5042275;28;20040;-66
2021/01/24 06:03:37;;;;;;;2.20;0.35;;;2.20;99.90;;;;;;5040381;28;20029;-66
2021/01/24 06:06:03;;;;;;;3.17;0.57;;;2.20;99.90;;;;;;5043194;28;20029;-65
2021/01/24 06:08:29;;;;;;;2.53;0.35;;;2.20;99.90;;;;;;5039984;28;20630;-66
2021/01/24 06:10:57;;;;;;;2.47;0.50;;;2.10;99.90;;;;;;5039973;28;20025;-65
2021/01/24 06:13:28;;;;;;;0.50;0.20;;;2.10;99.90;;;;;;5041001;28;20034;-65
2021/01/24 06:15:57;;;;;;;0.98;0.40;;;2.10;99.90;;;;;;5040466;28;20029;-66
2021/01/24 06:18:53;;;;;;;0.90;0.20;;;2.00;99.90;;;;;;5041362;28;20052;-66
2021/01/24 06:21:30;;;;;;;2.65;0.38;;;2.00;99.90;;;;;;5031212;28;20051;-65
2021/01/24 06:24:02;;;;;;;0.77;0.30;;;2.00;99.90;;;;;;5042132;28;20038;-67
2021/01/24 06:26:30;;;;;;;1.55;0.55;;;2.00;99.90;;;;;;5039568;28;20037;-65
2021/01/24 06:29:02;;;;;;;0.43;0.13;;;1.90;99.90;;;;;;5042416;28;20087;-65
2021/01/24 06:31:28;;;;;;;2.95;0.22;;;1.90;99.90;;;;;;5039300;28;20479;-65
2021/01/24 06:33:53;;;;;;;3.25;0.35;;;1.90;99.90;;;;;;5041596;28;20029;-66
2021/01/24 06:36:20;;;;;;;0.90;0.20;;;1.90;99.90;;;;;;5040599;28;20052;-65
2021/01/24 06:38:55;;;;;;;3.60;0.40;;;1.80;99.90;;;;;;5040813;28;20030;-66
2021/01/24 06:41:46;;;;;;;2.95;0.40;;;1.90;99.90;;;;;;5038708;28;20036;-66
2021/01/24 06:44:34;;;;;;;2.88;0.47;;;1.80;99.90;;;;;;5042938;28;20065;-67
2021/01/24 06:47:05;;;;;;;2.30;0.30;;;1.80;99.90;;;;;;5042565;28;20029;-65
2021/01/24 06:49:41;;;;;;;0.82;0.50;;;1.80;99.90;;;;;;5042237;28;20520;-66
2021/01/24 06:52:18;;;;;;;1.42;0.35;;;1.80;99.90;;;;;;5044735;28;20047;-66
2021/01/24 06:54:45;;;;;;;4.75;0.38;;;1.70;99.90;;;;;;5041545;28;20033;-66
2021/01/24 06:57:11;;;;;;;2.08;0.40;;;1.70;99.90;;;;;;5042459;28;20026;-66
2021/01/24 06:59:36;;;;;;;1.10;0.17;;;1.70;99.90;;;;;;5039349;28;20095;-65
2021/01/24 07:02:37;;;;;;;1.52;0.47;;;1.70;99.90;;;;;;5042321;28;20103;-67
2021/01/24 07:05:22;;;;;;;2.70;0.25;;;1.70;99.90;;;;;;4965636;28;20042;-65
2021/01/24 07:07:49;;;;;;;2.25;0.30;;;1.70;99.90;;;;;;5049762;28;20590;-65
2021/01/24 07:10:36;;;;;;;0.25;0.10;;;1.60;99.90;;;;;;5040241;28;20041;-65
2021/01/24 07:13:25;;;;;;;2.22;0.30;;;1.60;99.90;;;;;;5040715;28;20036;-65
2021/01/24 07:15:54;;;;;;;1.58;0.20;;;1.60;99.90;;;;;;5042234;28;20082;-65
2021/01/24 07:18:20;;;;;;;2.70;0.82;;;1.60;99.90;;;;;;5041412;28;20498;-65
2021/01/24 07:20:47;;;;;;;1.92;0.20;;;1.60;99.90;;;;;;5039769;28;20047;-65
2021/01/24 07:23:13;;;;;;;1.67;0.47;;;1.50;99.90;;;;;;5039529;28;20040;-65
2021/01/24 07:25:40;;;;;;;1.40;0.35;;;1.50;99.90;;;;;;5040369;28;20037;-66
2021/01/24 07:28:07;;;;;;;1.83;0.32;;;1.50;99.90;;;;;;5038387;28;20049;-66
2021/01/24 07:30:37;;;;;;;2.40;0.20;;;1.40;99.90;;;;;;5043339;28;20033;-65
2021/01/24 07:33:03;;;;;;;4.60;0.45;;;1.50;99.90;;;;;;5048710;28;20486;-65
2021/01/24 07:35:34;;;;;;;1.98;0.40;;;1.40;99.90;;;;;;5049627;28;20040;-65
2021/01/24 07:38:00;;;;;;;1.13;0.40;;;1.40;99.90;;;;;;5046274;28;20040;-66
2021/01/24 07:40:27;;;;;;;5.43;0.80;;;1.40;99.90;;;;;;5049309;28;20127;-66
2021/01/24 07:42:54;;;;;;;1.02;0.47;;;1.40;99.90;;;;;;5047969;28;20086;-66
2021/01/24 07:45:20;;;;;;;1.42;0.30;;;1.40;99.90;;;;;;5037664;28;20036;-66
2021/01/24 07:47:46;;;;;;;1.35;0.50;;;1.50;99.90;;;;;;5039936;28;20033;-66
2021/01/24 07:50:12;;;;;;;0.60;0.25;;;1.40;99.90;;;;;;5042524;28;20052;-66
2021/01/24 07:52:38;;;;;;;0.52;0.25;;;1.40;99.90;;;;;;5049387;28;20041;-66
2021/01/24 07:55:04;;;;;;;1.02;0.28;;;1.40;99.90;;;;;;5048494;28;20040;-66
2021/01/24 07:57:30;;;;;;;3.15;0.73;;;1.30;99.90;;;;;;5045034;28;20122;-65
2021/01/24 07:59:57;;;;;;;1.60;0.40;;;1.30;99.90;;;;;;5037253;28;20067;-65
2021/01/24 08:02:23;;;;;;;1.02;0.40;;;1.30;99.90;;;;;;5043039;28;20037;-65
2021/01/24 08:04:49;;;;;;;1.52;0.40;;;1.30;99.90;;;;;;5041378;28;20040;-66
2021/01/24 08:07:14;;;;;;;2.70;0.35;;;1.30;99.90;;;;;;5039507;28;20037;-66
2021/01/24 08:09:41;;;;;;;0.77;0.30;;;1.30;99.90;;;;;;5037927;28;20040;-66
2021/01/24 08:12:12;;;;;;;1.92;0.40;;;1.20;99.90;;;;;;5039779;28;20029;-65
2021/01/24 08:14:38;;;;;;;1.38;0.25;;;1.30;99.90;;;;;;5041278;28;20469;-65
2021/01/24 08:17:08;;;;;;;1.33;0.30;;;1.20;99.90;;;;;;5039532;28;20437;-66
2021/01/24 08:19:34;;;;;;;4.35;1.23;;;1.20;99.90;;;;;;5047861;28;20088;-66
2021/01/24 08:22:00;;;;;;;5.05;0.95;;;1.30;99.90;;;;;;5045624;28;20064;-67
2021/01/24 08:24:26;;;;;;;1.48;0.32;;;1.30;99.90;;;;;;5041439;28;20060;-67
2021/01/24 08:26:52;;;;;;;2.00;0.40;;;1.40;99.90;;;;;;5045639;28;20121;-65
2021/01/24 08:29:18;;;;;;;1.92;0.30;;;1.40;99.90;;;;;;5043747;28;20060;-65
2021/01/24 08:31:45;;;;;;;4.43;0.80;;;1.50;99.90;;;;;;5044826;28;20443;-67
2021/01/24 08:34:14;;;;;;;2.20;0.52;;;1.60;99.90;;;;;;5041173;28;20108;-65
2021/01/24 08:36:40;;;;;;;2.30;0.47;;;1.80;99.90;;;;;;5046811;28;20040;-66
2021/01/24 08:39:06;;;;;;;5.57;0.30;;;1.90;99.90;;;;;;5040743;28;20125;-65
2021/01/24 08:41:35;;;;;;;8.30;0.65;;;2.00;99.90;;;;;;5035105;28;20112;-67
2021/01/24 08:44:09;;;;;;;5.63;0.40;;;2.10;99.90;;;;;;5037677;28;20249;-67
2021/01/24 08:46:37;;;;;;;3.38;0.95;;;2.10;99.90;;;;;;5037752;28;20060;-66
2021/01/24 08:49:10;;;;;;;3.78;0.68;;;2.30;99.90;;;;;;5041036;28;20048;-66
2021/01/24 08:51:44;;;;;;;4.63;0.60;;;2.40;99.90;;;;;;5045154;28;20029;-66
2021/01/24 08:54:16;;;;;;;1.30;0.47;;;2.50;99.90;;;;;;5046359;28;20055;-66
2021/01/24 08:56:42;;;;;;;5.68;0.45;;;2.70;99.90;;;;;;5048030;28;20491;-65
2021/01/24 08:59:17;;;;;;;3.20;0.40;;;2.80;99.90;;;;;;5044105;28;20124;-66
2021/01/24 09:01:47;;;;;;;1.38;0.32;;;2.80;99.90;;;;;;5041706;28;20104;-66
2021/01/24 09:04:26;;;;;;;2.63;0.30;;;2.90;99.90;;;;;;5043233;28;20493;-66
2021/01/24 09:06:59;;;;;;;0.95;0.50;;;3.00;99.90;;;;;;5041469;28;20410;-67
2021/01/24 09:09:28;;;;;;;3.25;0.90;;;2.90;99.90;;;;;;5061105;28;20025;-67
2021/01/24 09:11:54;;;;;;;0.82;0.30;;;2.80;99.90;;;;;;5041111;28;20368;-67
2021/01/24 09:14:19;;;;;;;1.15;0.20;;;2.80;99.90;;;;;;5043347;28;20410;-67
2021/01/24 09:16:45;;;;;;;2.53;0.25;;;2.70;99.90;;;;;;5042583;28;20029;-67
2021/01/24 09:19:10;;;;;;;2.13;0.43;;;2.70;99.90;;;;;;5041012;28;20037;-67
2021/01/24 09:21:36;;;;;;;2.20;0.30;;;2.70;99.90;;;;;;5043800;28;20033;-67
2021/01/24 09:24:02;;;;;;;1.48;0.40;;;2.70;99.90;;;;;;5040703;28;20029;-67
2021/01/24 09:26:27;;;;;;;6.00;0.52;;;2.80;99.90;;;;;;5044707;28;20037;-67
2021/01/24 09:28:53;;;;;;;2.63;0.60;;;2.90;99.90;;;;;;5044649;28;20039;-67
2021/01/24 09:31:18;;;;;;;4.25;0.63;;;3.00;99.90;;;;;;5044773;28;20079;-68
2021/01/24 09:33:44;;;;;;;6.15;0.85;;;3.10;99.90;;;;;;5043433;28;20048;-67
2021/01/24 09:36:09;;;;;;;5.18;0.45;;;3.10;99.90;;;;;;5040210;28;20049;-67
2021/01/24 09:38:35;;;;;;;1.70;0.40;;;3.30;99.90;;;;;;5045760;28;20359;-67
2021/01/24 09:41:00;;;;;;;1.88;0.85;;;3.40;99.90;;;;;;5039075;28;20049;-67
2021/01/24 09:43:26;;;;;;;1.48;0.40;;;3.40;99.90;;;;;;5043991;28;20091;-67
2021/01/24 09:45:51;;;;;;;5.45;0.50;;;3.50;99.90;;;;;;5043619;28;20580;-67
2021/01/24 09:48:17;;;;;;;2.35;0.60;;;3.60;99.90;;;;;;5041146;28;20486;-68
2021/01/24 09:50:42;;;;;;;3.38;0.80;;;3.70;99.90;;;;;;5036226;28;20041;-67
2021/01/24 09:53:08;;;;;;;2.55;0.50;;;3.80;99.90;;;;;;5040477;28;20117;-67
2021/01/24 09:55:34;;;;;;;1.70;0.60;;;3.80;99.90;;;;;;5039607;28;20036;-67
2021/01/24 09:57:59;;;;;;;4.57;1.20;;;3.90;99.90;;;;;;5043651;28;20091;-67
2021/01/24 10:00:25;;;;;;;4.65;0.50;;;4.00;99.90;;;;;;5042424;28;20063;-68
2021/01/24 10:02:50;;;;;;;3.92;0.75;;;4.10;99.90;;;;;;5042669;28;20033;-67
2021/01/24 10:05:16;;;;;;;5.32;1.25;;;4.10;99.90;;;;;;5046736;28;20401;-68
2021/01/24 10:07:41;;;;;;;3.70;0.73;;;4.10;99.90;;;;;;5047369;28;20040;-66
2021/01/24 10:10:08;;;;;;;2.60;0.80;;;4.10;99.90;;;;;;5046829;28;20038;-68
2021/01/24 10:12:33;;;;;;;3.03;0.75;;;4.20;99.90;;;;;;5043063;28;20025;-68
2021/01/24 10:14:59;;;;;;;1.17;0.60;;;4.30;99.90;;;;;;5040811;28;20402;-67
2021/01/24 10:17:24;;;;;;;5.32;0.80;;;4.30;99.90;;;;;;5040027;28;20037;-67
2021/01/24 10:19:50;;;;;;;4.07;1.23;;;4.40;99.90;;;;;;5043549;28;20041;-67
2021/01/24 10:22:15;;;;;;;5.78;1.00;;;4.40;99.90;;;;;;5040117;28;20044;-67
2021/01/24 10:24:41;;;;;;;3.10;0.82;;;4.50;99.90;;;;;;5042326;28;20091;-68
2021/01/24 10:27:06;;;;;;;8.25;1.02;;;4.50;99.90;;;;;;5042613;28;20513;-67
2021/01/24 10:29:32;;;;;;;4.60;1.17;;;4.60;99.90;;;;;;5041199;28;20136;-68
2021/01/24 10:31:57;;;;;;;6.03;0.80;;;4.70;99.90;;;;;;5041863;28;20440;-67
2021/01/24 10:34:23;;;;;;;5.45;0.90;;;4.90;99.90;;;;;;5039211;28;20033;-68
2021/01/24 10:36:48;;;;;;;6.15;1.45;;;5.20;99.90;;;;;;5042091;28;20037;-67
2021/01/24 10:39:14;;;;;;;4.55;1.60;;;5.50;99.90;;;;;;5040190;28;20029;-67
2021/01/24 10:41:39;;;;;;;8.20;2.65;;;5.60;99.90;;;;;;5041411;28;20049;-68
2021/01/24 10:44:05;;;;;;;4.28;1.80;;;5.70;99.90;;;;;;5041222;28;20025;-67
2021/01/24 10:46:31;;;;;;;6.40;1.30;;;5.80;99.90;;;;;;5040405;28;20075;-68
2021/01/24 10:48:57;;;;;;;5.45;1.70;;;5.90;99.90;;;;;;5042490;28;20025;-67
2021/01/24 10:51:23;;;;;;;6.88;1.40;;;6.00;99.90;;;;;;5039669;28;20125;-69
2021/01/24 10:53:48;;;;;;;5.32;0.98;;;6.20;99.90;;;;;;5043449;28;20120;-68
2021/01/24 10:56:15;;;;;;;5.60;1.83;;;6.20;99.90;;;;;;5041371;28;20405;-68
2021/01/24 10:58:41;;;;;;;6.38;1.58;;;6.30;99.90;;;;;;5039365;28;20045;-68
2021/01/24 11:01:06;;;;;;;4.57;1.33;;;6.30;99.90;;;;;;5041392;28;20037;-68
2021/01/24 11:03:32;;;;;;;7.05;2.45;;;6.30;99.90;;;;;;5040738;28;20032;-68
2021/01/24 11:05:58;;;;;;;9.00;1.95;;;6.40;99.90;;;;;;5039901;28;20049;-68
2021/01/24 11:08:25;;;;;;;4.97;1.88;;;6.40;99.90;;;;;;5042553;28;20041;-67
2021/01/24 11:10:51;;;;;;;7.25;1.58;;;6.40;99.90;;;;;;5037571;28;20812;-68
2021/01/24 11:13:17;;;;;;;3.88;1.50;;;6.60;99.90;;;;;;5042495;28;20025;-68
2021/01/24 11:15:44;;;;;;;4.72;1.20;;;7.00;99.90;;;;;;5038842;28;20029;-68
2021/01/24 11:18:10;;;;;;;10.48;1.58;;;7.20;99.90;;;;;;5040577;28;20037;-68
2021/01/24 11:20:35;;;;;;;7.68;2.78;;;7.20;99.90;;;;;;5039684;28;20045;-68
2021/01/24 11:23:01;;;;;;;10.43;1.98;;;7.00;99.90;;;;;;5040627;28;20077;-68
2021/01/24 11:25:26;;;;;;;5.07;2.10;;;6.70;99.90;;;;;;5039921;28;20037;-68
2021/01/24 11:27:52;;;;;;;6.78;1.70;;;6.50;99.90;;;;;;5037380;28;20048;-68
2021/01/24 11:30:19;;;;;;;5.90;1.60;;;6.30;99.90;;;;;;5041819;28;20040;-68
2021/01/24 11:32:44;;;;;;;8.38;1.83;;;6.20;99.90;;;;;;5041822;28;20108;-67
2021/01/24 11:35:12;;;;;;;3.85;1.88;;;6.50;99.90;;;;;;5039171;28;20521;-68
2021/01/24 11:37:42;;;;;;;3.35;1.70;;;6.80;99.90;;;;;;5040777;28;20143;-67
2021/01/24 11:40:08;;;;;;;7.38;1.33;;;7.10;99.90;;;;;;5038099;28;20080;-68
2021/01/24 11:42:35;;;;;;;6.60;1.40;;;7.10;99.90;;;;;;5039045;28;20048;-68
2021/01/24 11:45:00;;;;;;;5.05;1.90;;;6.80;99.90;;;;;;5040372;28;20425;-67
2021/01/24 11:47:29;;;;;;;9.48;2.30;;;6.60;99.90;;;;;;5039616;28;20099;-68
2021/01/24 11:49:54;;;;;;;8.63;1.83;;;6.40;99.90;;;;;;5040235;28;20029;-67
2021/01/24 11:52:20;;;;;;;13.20;2.00;;;6.30;99.90;;;;;;5038763;28;20038;-68
2021/01/24 11:54:46;;;;;;;8.60;1.45;;;6.10;99.90;;;;;;5037738;28;20369;-68
2021/01/24 11:57:11;;;;;;;6.78;1.80;;;6.10;99.90;;;;;;5041547;28;20044;-67
2021/01/24 11:59:37;;;;;;;6.40;1.55;;;6.00;99.90;;;;;;5037669;28;21027;-68
2021/01/24 12:02:02;;;;;;;6.38;1.73;;;5.90;99.90;;;;;;5039561;28;20112;-68
2021/01/24 12:04:28;;;;;;;10.65;1.30;;;5.90;99.90;;;;;;5040241;28;20116;-67
2021/01/24 12:06:53;;;;;;;6.30;1.50;;;5.80;99.90;;;;;;5038335;28;20041;-68
2021/01/24 12:09:19;;;;;;;6.90;1.50;;;5.80;99.90;;;;;;5041229;28;20072;-67
2021/01/24 12:11:44;;;;;;;9.55;2.22;;;5.70;99.90;;;;;;5037624;28;20029;-68
2021/01/24 12:14:10;;;;;;;5.20;1.35;;;5.80;99.90;;;;;;5040835;28;20040;-68
2021/01/24 12:16:35;;;;;;;5.68;1.75;;;5.80;99.90;;;;;;5038676;28;20515;-68
2021/01/24 12:19:01;;;;;;;12.98;1.42;;;5.80;99.90;;;;;;5039082;28;20534;-67
2021/01/24 12:21:26;;;;;;;5.32;1.70;;;5.80;99.90;;;;;;5040030;28;20025;-67
2021/01/24 12:23:52;;;;;;;5.88;1.20;;;5.80;99.90;;;;;;5038038;28;20082;-68
2021/01/24 12:26:18;;;;;;;4.13;1.70;;;5.90;99.90;;;;;;5040399;28;20480;-67
2021/01/24 12:28:44;;;;;;;5.32;1.77;;;5.90;99.90;;;;;;5038050;28;20117;-67
2021/01/24 12:31:09;;;;;;;11.07;1.42;;;6.10;99.90;;;;;;5039396;28;20048;-67
2021/01/24 12:33:35;;;;;;;3.75;0.90;;;6.20;99.90;;;;;;5038516;28;20025;-67
2021/01/24 12:36:00;;;;;;;8.18;1.42;;;6.20;99.90;;;;;;5039151;28;20040;-67
2021/01/24 12:38:26;;;;;;;3.40;1.20;;;6.30;99.90;;;;;;5039467;28;20102;-68
2021/01/24 12:40:51;;;;;;;5.25;1.15;;;6.40;99.90;;;;;;5036729;28;20037;-67
2021/01/24 12:43:17;;;;;;;3.08;1.00;;;6.60;99.90;;;;;;5040668;28;20033;-67
2021/01/24 12:45:42;;;;;;;13.25;2.17;;;6.60;99.90;;;;;;5036208;28;20660;-67
2021/01/24 12:48:08;;;;;;;5.32;1.05;;;6.70;99.90;;;;;;5039286;28;20500;-68
2021/01/24 12:50:34;;;;;;;3.38;0.75;;;6.70;99.90;;;;;;5045363;28;20048;-68
2021/01/24 12:52:59;;;;;;;3.42;0.73;;;6.80;99.90;;;;;;5046517;28;20032;-68
2021/01/24 12:55:25;;;;;;;1.65;0.80;;;6.60;99.90;;;;;;5047658;28;20040;-67
2021/01/24 12:57:50;;;;;;;4.82;1.05;;;6.60;99.90;;;;;;5044393;28;20036;-68